Time;durP1;ratioP1;P1;durP2;ratioP2;P2;SDS_P1;SDS_P2;PMS_P1;PMS_P2;Temp;Humidity;BMP_temperature;BMP_pressure;BME280_temperature;BME280_humidity;BME280_pressure;Samples;Min_cycle;Max_cycle;Signal;HPM_P1;HPM_P2
2024/01/28 00:00:39;;;;;;;;;;;;;;;-0.66;97.09;103224.41;5010745;28;20429;-66
2024/01/28 00:03:05;;;;;;;;;;;;;;;-0.62;97.24;103215.22;4999554;28;20073;-66
2024/01/28 00:05:31;;;;;;;;;;;;;;;-0.55;98.02;103210.63;5026054;28;19913;-66
2024/01/28 00:07:56;;;;;;;;;;;;;;;-0.53;97.85;103205.59;4986599;28;19932;-66
2024/01/28 00:10:21;;;;;;;;;;;;;;;-0.60;98.01;103203.34;5020835;28;19982;-66
2024/01/28 00:12:47;;;;;;;;;;;;;;;-0.53;98.83;103205.59;5007725;28;19953;-71
2024/01/28 00:15:12;;;;;;;;;;;;;;;-0.40;99.64;103205.66;5000724;28;19933;-70
2024/01/28 00:17:37;;;;;;;;;;;;;;;-0.46;99.72;103201.75;5003186;28;19917;-70
2024/01/28 00:20:05;;;;;;;;;;;;;;;-0.46;99.92;103199.16;5015512;28;20012;-70
2024/01/28 00:22:31;;;;;;;;;;;;;;;-0.42;99.90;103196.91;5014407;28;19917;-70
2024/01/28 00:24:57;;;;;;;;;;;;;;;-0.48;99.77;103199.06;5019900;28;20058;-71
2024/01/28 00:27:22;;;;;;;;;;;;;;;-0.50;100.00;103184.28;5000536;28;20328;-70
2024/01/28 00:29:49;;;;;;;;;;;;;;;-0.39;100.00;103194.59;5025041;28;19956;-71
2024/01/28 00:32:15;;;;;;;;;;;;;;;-0.33;100.00;103185.47;4988857;28;20047;-71
2024/01/28 00:34:40;;;;;;;;;;;;;;;-0.39;100.00;103184.28;4995789;28;20074;-71
2024/01/28 00:37:08;;;;;;;;;;;;;;;-0.46;100.00;103179.47;5003988;28;19925;-71
2024/01/28 00:39:35;;;;;;;;;;;;;;;-0.44;100.00;103180.47;5010171;28;19920;-71
2024/01/28 00:42:01;;;;;;;;;;;;;;;-0.48;100.00;103170.72;4996185;28;19932;-70
2024/01/28 00:44:26;;;;;;;;;;;;;;;-0.50;100.00;103173.97;5022225;28;19926;-71
2024/01/28 00:46:54;;;;;;;;;;;;;;;-0.48;100.00;103156.97;4998839;28;19955;-71
2024/01/28 00:49:19;;;;;;;;;;;;;;;-0.51;100.00;103156.75;5001620;28;19929;-70
2024/01/28 00:51:45;;;;;;;;;;;;;;;-0.53;100.00;103159.22;5004595;28;19926;-71
2024/01/28 00:54:10;;;;;;;;;;;;;;;-0.56;100.00;103161.56;4999517;28;19931;-71
2024/01/28 00:56:35;;;;;;;;;;;;;;;-0.62;100.00;103158.56;4983284;28;19933;-71
2024/01/28 00:59:00;;;;;;;;;;;;;;;-0.61;100.00;103165.50;4982999;28;19926;-71
2024/01/28 01:01:26;;;;;;;;;;;;;;;-0.66;100.00;103153.97;5014701;28;20004;-70
2024/01/28 01:03:51;;;;;;;;;;;;;;;-0.63;100.00;103160.25;4996157;28;19921;-71
2024/01/28 01:06:16;;;;;;;;;;;;;;;-0.63;100.00;103146.44;4988229;28;19975;-71
2024/01/28 01:08:42;;;;;;;;;;;;;;;-0.64;100.00;103152.41;5005486;28;19921;-71
2024/01/28 01:11:07;;;;;;;;;;;;;;;-0.63;100.00;103146.44;5016022;28;20242;-71
2024/01/28 01:13:33;;;;;;;;;;;;;;;-0.63;100.00;103149.03;5028156;28;19917;-71
2024/01/28 01:15:59;;;;;;;;;;;;;;;-0.64;100.00;103145.56;4996317;28;19921;-71
2024/01/28 01:18:25;;;;;;;;;;;;;;;-0.64;100.00;103145.56;4998912;28;19929;-70
2024/01/28 01:20:53;;;;;;;;;;;;;;;-0.63;100.00;103139.66;4996336;28;19953;-71
2024/01/28 01:23:19;;;;;;;;;;;;;;;-0.60;100.00;103138.97;5010796;28;19921;-71
2024/01/28 01:25:45;;;;;;;;;;;;;;;-0.59;100.00;103133.94;5023202;28;19980;-70
2024/01/28 01:28:10;;;;;;;;;;;;;;;-0.59;100.00;103133.94;5005068;28;19929;-71
2024/01/28 01:30:36;;;;;;;;;;;;;;;-0.59;100.00;103133.94;4991303;28;19929;-71
2024/01/28 01:33:01;;;;;;;;;;;;;;;-0.57;100.00;103134.03;4997001;28;19995;-71
2024/01/28 01:35:26;;;;;;;;;;;;;;;-0.56;100.00;103131.56;5012627;28;19970;-71
2024/01/28 01:37:54;;;;;;;;;;;;;;;-0.50;100.00;103137.91;5001919;28;19921;-71
2024/01/28 01:40:20;;;;;;;;;;;;;;;-0.53;100.00;103123.16;4992649;28;19924;-66
2024/01/28 01:42:45;;;;;;;;;;;;;;;-0.55;100.00;103122.16;4995905;28;19922;-66
2024/01/28 01:45:12;;;;;;;;;;;;;;;-0.61;100.00;103121.72;4997973;28;19921;-66
2024/01/28 01:47:37;;;;;;;;;;;;;;;-0.68;100.00;103122.97;5000317;28;20400;-66
2024/01/28 01:50:02;;;;;;;;;;;;;;;-0.76;100.00;103127.56;4997507;28;19921;-66
2024/01/28 01:52:29;;;;;;;;;;;;;;;-0.85;100.00;103134.63;4994430;28;20219;-66
2024/01/28 01:54:55;;;;;;;;;;;;;;;-0.95;100.00;103147.63;5013078;28;20015;-66
2024/01/28 01:57:20;;;;;;;;;;;;;;;-1.06;100.00;103145.16;5013219;28;20047;-66
2024/01/28 01:59:46;;;;;;;;;;;;;;;-1.10;100.00;103147.41;5007355;28;19929;-66
2024/01/28 02:02:11;;;;;;;;;;;;;;;-1.16;100.00;103147.84;5010625;28;19926;-66
2024/01/28 02:04:38;;;;;;;;;;;;;;;-1.18;100.00;103149.41;5023839;28;19921;-66
2024/01/28 02:07:03;;;;;;;;;;;;;;;-1.23;100.00;103145.63;4994490;28;19921;-70
2024/01/28 02:09:29;;;;;;;;;;;;;;;-1.26;100.00;103145.41;5014323;28;20039;-70
2024/01/28 02:11:54;;;;;;;;;;;;;;;-1.30;100.00;103158.81;5003014;28;20020;-70
2024/01/28 02:14:20;;;;;;;;;;;;;;;-1.33;100.00;103153.44;5010634;28;19921;-70
2024/01/28 02:16:48;;;;;;;;;;;;;;;-1.36;100.00;103154.09;5008527;28;20354;-67
2024/01/28 02:19:13;;;;;;;;;;;;;;;-1.40;100.00;103157.22;4991103;28;20353;-66
2024/01/28 02:21:38;;;;;;;;;;;;;;;-1.43;100.00;103157.00;5004640;28;19932;-66
2024/01/28 02:24:04;;;;;;;;;;;;;;;-1.43;100.00;103146.72;5026078;28;19922;-66
2024/01/28 02:26:29;;;;;;;;;;;;;;;-1.38;100.00;103129.94;4999819;28;20317;-66
2024/01/28 02:28:55;;;;;;;;;;;;;;;-1.38;100.00;103129.94;4994265;28;19925;-66
2024/01/28 02:31:20;;;;;;;;;;;;;;;-1.42;100.00;103120.22;4987371;28;19973;-66
2024/01/28 02:33:45;;;;;;;;;;;;;;;-1.50;100.00;103111.03;4991704;28;20446;-66
2024/01/28 02:36:11;;;;;;;;;;;;;;;-1.64;100.00;103104.84;4998026;28;20368;-66
2024/01/28 02:38:36;;;;;;;;;;;;;;;-1.72;100.00;103108.53;5006280;28;19921;-66
2024/01/28 02:41:01;;;;;;;;;;;;;;;-1.81;100.00;103107.06;4998487;28;20369;-66
2024/01/28 02:43:27;;;;;;;;;;;;;;;-1.89;100.00;103097.88;4995367;28;19921;-67
2024/01/28 02:45:52;;;;;;;;;;;;;;;-1.95;100.00;103089.72;4998156;28;20294;-70
2024/01/28 02:48:17;;;;;;;;;;;;;;;-1.95;100.00;103093.19;4999464;28;19922;-70
2024/01/28 02:50:43;;;;;;;;;;;;;;;-1.91;100.00;103089.19;5010240;28;20030;-66
2024/01/28 02:53:09;;;;;;;;;;;;;;;-1.90;100.00;103087.50;5010962;28;19927;-66
2024/01/28 02:55:36;;;;;;;;;;;;;;;-1.93;100.00;103083.00;5004978;28;19941;-67
2024/01/28 02:58:01;;;;;;;;;;;;;;;-1.98;100.00;103081.78;5001084;28;19929;-66
2024/01/28 03:00:27;;;;;;;;;;;;;;;-2.01;100.00;103091.81;4995708;28;19940;-67
2024/01/28 03:02:52;;;;;;;;;;;;;;;-2.00;100.00;103093.59;4987943;28;19953;-66
2024/01/28 03:05:18;;;;;;;;;;;;;;;-2.01;100.00;103081.53;5003913;28;19921;-66
2024/01/28 03:07:44;;;;;;;;;;;;;;;-1.99;100.00;103079.97;5011449;28;19943;-66
2024/01/28 03:10:09;;;;;;;;;;;;;;;-1.99;100.00;103082.56;5012767;28;20012;-66
2024/01/28 03:12:35;;;;;;;;;;;;;;;-2.02;100.00;103075.50;4992768;28;20276;-66
2024/01/28 03:15:00;;;;;;;;;;;;;;;-2.04;100.00;103065.88;5020513;28;19928;-66
2024/01/28 03:17:25;;;;;;;;;;;;;;;-2.06;100.00;103064.88;5012906;28;19971;-66
2024/01/28 03:19:51;;;;;;;;;;;;;;;-2.04;100.00;103065.88;4989601;28;21175;-66
2024/01/28 03:22:16;;;;;;;;;;;;;;;-2.03;100.00;103065.13;5009009;28;19932;-66
2024/01/28 03:24:42;;;;;;;;;;;;;;;-2.01;100.00;103060.97;5009806;28;19922;-66
2024/01/28 03:27:07;;;;;;;;;;;;;;;-2.04;100.00;103060.75;5011180;28;19937;-70
2024/01/28 03:29:32;;;;;;;;;;;;;;;-2.04;100.00;103060.75;5015167;28;19971;-70
2024/01/28 03:31:57;;;;;;;;;;;;;;;-2.09;100.00;103062.97;5014726;28;19921;-70
2024/01/28 03:34:23;;;;;;;;;;;;;;;-2.15;100.00;103062.50;5008766;28;20369;-70
2024/01/28 03:36:48;;;;;;;;;;;;;;;-2.25;100.00;103066.06;5008212;28;19929;-70
2024/01/28 03:39:16;;;;;;;;;;;;;;;-2.30;100.00;103067.34;5016061;28;19921;-70
2024/01/28 03:41:43;;;;;;;;;;;;;;;-2.37;100.00;103073.72;5024975;28;19967;-70
2024/01/28 03:44:08;;;;;;;;;;;;;;;-2.44;100.00;103077.47;5009109;28;19922;-70
2024/01/28 03:46:35;;;;;;;;;;;;;;;-2.51;100.00;103077.78;5025122;28;19975;-70
2024/01/28 03:49:00;;;;;;;;;;;;;;;-2.59;100.00;103076.28;5007473;28;20389;-70
2024/01/28 03:51:26;;;;;;;;;;;;;;;-2.67;100.00;103075.69;5013292;28;19936;-70
2024/01/28 03:53:51;;;;;;;;;;;;;;;-2.70;100.00;103069.41;5003188;28;19960;-70
2024/01/28 03:56:17;;;;;;;;;;;;;;;-2.73;100.00;103067.53;5014478;28;19917;-70
2024/01/28 03:58:42;;;;;;;;;;;;;;;-2.74;100.00;103062.25;5015623;28;19925;-70
2024/01/28 04:01:08;;;;;;;;;;;;;;;-2.73;100.00;103058.91;5001226;28;19925;-70
2024/01/28 04:03:33;;;;;;;;;;;;;;;-2.78;100.00;103059.44;4991020;28;20365;-70
2024/01/28 04:05:58;;;;;;;;;;;;;;;-2.85;100.00;103052.03;5027041;28;19957;-70
2024/01/28 04:08:26;;;;;;;;;;;;;;;-2.90;100.00;103053.38;5014085;28;19925;-70
2024/01/28 04:10:51;;;;;;;;;;;;;;;-2.85;100.00;103053.72;5011912;28;20320;-71
2024/01/28 04:13:17;;;;;;;;;;;;;;;-2.81;100.00;103054.06;5001346;28;19925;-70
2024/01/28 04:15:42;;;;;;;;;;;;;;;-2.75;100.00;103050.22;4989705;28;19957;-71
2024/01/28 04:18:07;;;;;;;;;;;;;;;-2.72;100.00;103043.63;5010846;28;19967;-70
2024/01/28 04:20:32;;;;;;;;;;;;;;;-2.72;100.00;103042.75;5001006;28;20377;-70
2024/01/28 04:22:59;;;;;;;;;;;;;;;-2.78;100.00;103046.59;4998134;28;19944;-70
2024/01/28 04:25:24;;;;;;;;;;;;;;;-2.78;100.00;103044.03;5006824;28;19948;-70
2024/01/28 04:27:49;;;;;;;;;;;;;;;-2.72;100.00;103038.50;5014148;28;19917;-70
2024/01/28 04:30:15;;;;;;;;;;;;;;;-2.71;100.00;103042.84;5014905;28;19925;-70
2024/01/28 04:32:41;;;;;;;;;;;;;;;-2.72;100.00;103035.94;5013120;28;19928;-71
2024/01/28 04:35:10;;;;;;;;;;;;;;;-2.73;100.00;103036.72;5016262;28;19925;-70
2024/01/28 04:37:35;;;;;;;;;;;;;;;-2.75;100.00;103034.81;5018424;28;20760;-70
2024/01/28 04:40:00;;;;;;;;;;;;;;;-2.80;100.00;103030.22;5008736;28;20016;-70
2024/01/28 04:42:26;;;;;;;;;;;;;;;-2.84;100.00;103027.28;4995055;28;20305;-71
2024/01/28 04:44:51;;;;;;;;;;;;;;;-2.86;100.00;103024.59;5022886;28;19928;-70
2024/01/28 04:47:17;;;;;;;;;;;;;;;-2.82;100.00;103023.16;5005561;28;19921;-71
2024/01/28 04:49:42;;;;;;;;;;;;;;;-2.84;100.00;103024.72;5017148;28;19924;-70
2024/01/28 04:52:08;;;;;;;;;;;;;;;-2.82;100.00;103018.91;5008375;28;20632;-70
2024/01/28 04:54:33;;;;;;;;;;;;;;;-2.82;100.00;103013.78;5023488;28;19921;-71
2024/01/28 04:57:01;;;;;;;;;;;;;;;-2.80;100.00;103004.53;5012036;28;19925;-71
2024/01/28 04:59:26;;;;;;;;;;;;;;;-2.78;100.00;103005.53;5008479;28;20385;-71
2024/01/28 05:01:51;;;;;;;;;;;;;;;-2.78;100.00;103015.81;4993176;28;20024;-70
2024/01/28 05:04:17;;;;;;;;;;;;;;;-2.75;100.00;103006.56;5012524;28;19983;-71
2024/01/28 05:06:42;;;;;;;;;;;;;;;-2.68;100.00;103008.84;4990727;28;19972;-71
2024/01/28 05:09:10;;;;;;;;;;;;;;;-2.62;100.00;103006.75;4995286;28;19952;-67
2024/01/28 05:11:35;;;;;;;;;;;;;;;-2.63;100.00;103007.50;5007192;28;20197;-67
2024/01/28 05:14:00;;;;;;;;;;;;;;;-2.62;100.00;102999.91;5001315;28;19921;-67
2024/01/28 05:16:26;;;;;;;;;;;;;;;-2.58;100.00;103006.19;5027957;28;19913;-67
2024/01/28 05:18:51;;;;;;;;;;;;;;;-2.55;100.00;103008.13;5012681;28;19929;-67
2024/01/28 05:21:18;;;;;;;;;;;;;;;-2.49;100.00;103006.00;5009479;28;19918;-67
2024/01/28 05:23:44;;;;;;;;;;;;;;;-2.41;100.00;102996.31;5025314;28;19940;-67
2024/01/28 05:26:09;;;;;;;;;;;;;;;-2.42;100.00;102994.53;4998895;28;19918;-67
2024/01/28 05:28:34;;;;;;;;;;;;;;;-2.41;100.00;102989.53;5022960;28;19964;-67
2024/01/28 05:31:00;;;;;;;;;;;;;;;-2.36;100.00;102987.28;5009957;28;19979;-67
2024/01/28 05:33:25;;;;;;;;;;;;;;;-2.33;100.00;102990.09;5007664;28;19937;-67
2024/01/28 05:35:50;;;;;;;;;;;;;;;-2.32;100.00;102985.06;4997528;28;19921;-67
2024/01/28 05:38:16;;;;;;;;;;;;;;;-2.29;100.00;102981.84;5008825;28;19929;-67
2024/01/28 05:40:41;;;;;;;;;;;;;;;-2.25;100.00;102977.84;5015074;28;19919;-67
2024/01/28 05:43:07;;;;;;;;;;;;;;;-2.25;100.00;102973.59;4996772;28;19993;-67
2024/01/28 05:45:32;;;;;;;;;;;;;;;-2.29;100.00;102961.28;5007311;28;19917;-67
2024/01/28 05:48:01;;;;;;;;;;;;;;;-2.32;100.00;102961.94;4997651;28;19921;-67
2024/01/28 05:50:28;;;;;;;;;;;;;;;-2.36;100.00;102959.94;5020434;28;19961;-67
2024/01/28 05:52:53;;;;;;;;;;;;;;;-2.38;100.00;102958.03;5013003;28;19919;-67
2024/01/28 05:55:18;;;;;;;;;;;;;;;-2.41;100.00;102952.66;5020584;28;20015;-67
2024/01/28 05:57:44;;;;;;;;;;;;;;;-2.45;100.00;102955.00;4986258;28;19961;-67
2024/01/28 06:00:09;;;;;;;;;;;;;;;-2.45;100.00;102949.84;5001716;28;20024;-67
2024/01/28 06:02:34;;;;;;;;;;;;;;;-2.41;100.00;102945.88;5011728;28;19967;-67
2024/01/28 06:05:00;;;;;;;;;;;;;;;-2.41;100.00;102939.81;5011040;28;19933;-67
2024/01/28 06:07:25;;;;;;;;;;;;;;;-2.41;100.00;102937.25;5007461;28;19922;-67
2024/01/28 06:09:50;;;;;;;;;;;;;;;-2.43;100.00;102944.84;4986080;28;19925;-67
2024/01/28 06:12:16;;;;;;;;;;;;;;;-2.42;100.00;102936.38;4991475;28;20337;-67
2024/01/28 06:14:41;;;;;;;;;;;;;;;-2.47;100.00;102925.75;5005979;28;19917;-67
2024/01/28 06:17:06;;;;;;;;;;;;;;;-2.47;100.00;102922.28;5021926;28;20039;-66
2024/01/28 06:19:32;;;;;;;;;;;;;;;-2.40;100.00;102921.06;5021411;28;19992;-67
2024/01/28 06:22:01;;;;;;;;;;;;;;;-2.36;100.00;102917.97;5004720;28;19921;-67
2024/01/28 06:24:27;;;;;;;;;;;;;;;-2.31;100.00;102921.78;5002100;28;19971;-67
2024/01/28 06:26:52;;;;;;;;;;;;;;;-2.27;100.00;102918.63;5007787;28;19921;-66
2024/01/28 06:29:17;;;;;;;;;;;;;;;-2.24;100.00;102913.75;4996343;28;19979;-67
2024/01/28 06:31:43;;;;;;;;;;;;;;;-2.06;100.00;102909.03;5019279;28;19991;-67
2024/01/28 06:34:08;;;;;;;;;;;;;;;-2.14;100.00;102905.94;4999610;28;19975;-71
2024/01/28 06:36:33;;;;;;;;;;;;;;;-2.09;100.00;102902.00;4984735;28;20434;-71
2024/01/28 06:38:58;;;;;;;;;;;;;;;-2.06;100.00;102897.88;5012302;28;20009;-71
2024/01/28 06:41:24;;;;;;;;;;;;;;;-2.14;100.00;102899.88;4997568;28;19924;-71
2024/01/28 06:43:49;;;;;;;;;;;;;;;-2.17;100.00;102900.56;5014641;28;20063;-71
2024/01/28 06:46:16;;;;;;;;;;;;;;;-2.19;100.00;102904.69;5004482;28;19960;-71
2024/01/28 06:48:41;;;;;;;;;;;;;;;-2.20;100.00;102905.44;4984751;28;20012;-71
2024/01/28 06:51:08;;;;;;;;;;;;;;;-2.16;100.00;102909.16;4991582;28;20448;-71
2024/01/28 06:53:33;;;;;;;;;;;;;;;-2.21;100.00;102911.41;5010258;28;20281;-71
2024/01/28 06:55:59;;;;;;;;;;;;;;;-2.12;100.00;102908.59;5025644;28;19918;-71
2024/01/28 06:58:25;;;;;;;;;;;;;;;-2.16;100.00;102912.59;5011675;28;19980;-71
2024/01/28 07:00:50;;;;;;;;;;;;;;;-2.20;100.00;102900.31;4998615;28;20372;-71
2024/01/28 07:03:17;;;;;;;;;;;;;;;-2.19;100.00;102909.81;5017540;28;19952;-71
2024/01/28 07:05:42;;;;;;;;;;;;;;;-2.17;100.00;102908.28;5004768;28;20349;-71
2024/01/28 07:08:08;;;;;;;;;;;;;;;-2.24;100.00;102908.59;5003134;28;19924;-71
2024/01/28 07:10:34;;;;;;;;;;;;;;;-2.24;100.00;102905.13;4999671;28;20295;-71
2024/01/28 07:12:59;;;;;;;;;;;;;;;-2.27;100.00;102904.13;5014509;28;20059;-71
2024/01/28 07:15:24;;;;;;;;;;;;;;;-2.23;100.00;102907.81;4998334;28;20052;-71
2024/01/28 07:17:50;;;;;;;;;;;;;;;-2.23;100.00;102901.78;5015519;28;19923;-71
2024/01/28 07:20:16;;;;;;;;;;;;;;;-2.23;100.00;102904.34;4997118;28;20373;-71
2024/01/28 07:22:42;;;;;;;;;;;;;;;-2.19;100.00;102907.25;5026998;28;20004;-71
2024/01/28 07:25:07;;;;;;;;;;;;;;;-2.10;100.00;102900.25;5016199;28;20445;-71
2024/01/28 07:27:32;;;;;;;;;;;;;;;-2.04;100.00;102897.22;5000022;28;19971;-71
2024/01/28 07:29:59;;;;;;;;;;;;;;;-2.06;100.00;102891.06;5006780;28;20012;-71
2024/01/28 07:32:24;;;;;;;;;;;;;;;-2.07;100.00;102888.38;5010098;28;19925;-71
2024/01/28 07:34:50;;;;;;;;;;;;;;;-2.07;100.00;102883.25;5011408;28;20403;-71
2024/01/28 07:37:15;;;;;;;;;;;;;;;-2.08;100.00;102887.50;5015494;28;19960;-71
2024/01/28 07:39:40;;;;;;;;;;;;;;;-2.07;100.00;102898.66;4989999;28;19926;-71
2024/01/28 07:42:06;;;;;;;;;;;;;;;-2.05;100.00;102890.28;5017600;28;20013;-71
2024/01/28 07:44:32;;;;;;;;;;;;;;;-1.99;100.00;102900.13;4997501;28;20362;-66
2024/01/28 07:46:59;;;;;;;;;;;;;;;-1.91;100.00;102901.56;5013252;28;19932;-71
2024/01/28 07:49:24;;;;;;;;;;;;;;;-1.84;100.00;102890.03;4992236;28;19921;-71
2024/01/28 07:51:50;;;;;;;;;;;;;;;-1.78;100.00;102893.97;4981367;28;20599;-71
2024/01/28 07:54:15;;;;;;;;;;;;;;;-1.77;100.00;102884.56;5020004;28;19921;-71
2024/01/28 07:56:41;;;;;;;;;;;;;;;-1.70;100.00;102883.31;4998623;28;20419;-71
2024/01/28 07:59:06;;;;;;;;;;;;;;;-1.69;100.00;102890.25;5013234;28;19921;-71
2024/01/28 08:01:32;;;;;;;;;;;;;;;-1.71;100.00;102884.09;5030528;28;19974;-71
2024/01/28 08:03:58;;;;;;;;;;;;;;;-1.68;100.00;102881.75;5012005;28;19917;-71
2024/01/28 08:06:23;;;;;;;;;;;;;;;-1.66;100.00;102882.75;5014274;28;19968;-71
2024/01/28 08:08:48;;;;;;;;;;;;;;;-1.61;100.00;102895.16;5008190;28;19921;-67
2024/01/28 08:11:14;;;;;;;;;;;;;;;-1.57;100.00;102896.25;5011457;28;19973;-66
2024/01/28 08:13:40;;;;;;;;;;;;;;;-1.51;100.00;102888.09;5015545;28;20262;-65
2024/01/28 08:16:06;;;;;;;;;;;;;;;-1.50;100.00;102888.19;5028732;28;19952;-65
2024/01/28 08:18:31;;;;;;;;;;;;;;;-1.42;100.00;102881.91;5004488;28;20531;-66
2024/01/28 08:20:56;;;;;;;;;;;;;;;-1.31;100.00;102884.34;5016556;28;19924;-66
2024/01/28 08:23:21;;;;;;;;;;;;;;;-1.00;100.00;102887.34;5000282;28;19951;-66
2024/01/28 08:25:47;;;;;;;;;;;;;;;0.49;99.45;102890.16;4989967;28;20016;-66
2024/01/28 08:28:12;;;;;;;;;;;;;;;2.48;91.17;102877.56;4996550;28;20055;-67
2024/01/28 08:30:37;;;;;;;;;;;;;;;4.03;85.51;102881.09;5016059;28;19925;-67
2024/01/28 08:33:03;;;;;;;;;;;;;;;5.00;85.08;102872.56;5005001;28;19925;-67
2024/01/28 08:35:29;;;;;;;;;;;;;;;6.06;81.52;102870.88;5010610;28;19922;-67
2024/01/28 08:37:54;;;;;;;;;;;;;;;6.45;78.37;102860.25;5008240;28;20031;-67
2024/01/28 08:40:19;;;;;;;;;;;;;;;6.41;78.39;102858.34;5010249;28;20062;-67
2024/01/28 08:42:45;;;;;;;;;;;;;;;6.37;77.85;102857.34;4996707;28;20371;-67
2024/01/28 08:45:10;;;;;;;;;;;;;;;6.86;74.56;102857.38;5010798;28;19925;-67
2024/01/28 08:47:35;;;;;;;;;;;;;;;7.60;71.77;102858.19;5008753;28;19921;-67
2024/01/28 08:50:01;;;;;;;;;;;;;;;8.32;68.27;102850.88;4997134;28;20296;-67
2024/01/28 08:52:27;;;;;;;;;;;;;;;8.93;65.87;102849.13;4988471;28;19932;-67
2024/01/28 08:54:52;;;;;;;;;;;;;;;9.68;64.97;102855.44;5014954;28;20336;-67
2024/01/28 08:57:20;;;;;;;;;;;;;;;10.42;64.11;102855.38;5028754;28;19968;-67
2024/01/28 08:59:46;;;;;;;;;;;;;;;11.24;62.79;102860.44;5021151;28;19932;-67
2024/01/28 09:02:11;;;;;;;;;;;;;;;11.71;60.46;102860.38;4993399;28;19929;-67
2024/01/28 09:04:36;;;;;;;;;;;;;;;12.08;59.85;102863.59;5005699;28;19921;-67
2024/01/28 09:07:02;;;;;;;;;;;;;;;12.45;59.24;102856.16;4995613;28;19921;-67
2024/01/28 09:09:28;;;;;;;;;;;;;;;12.73;58.99;102851.25;5011230;28;19929;-67
2024/01/28 09:11:54;;;;;;;;;;;;;;;12.85;56.67;102847.00;4998590;28;19936;-67
2024/01/28 09:14:19;;;;;;;;;;;;;;;12.90;56.94;102840.94;5011048;28;19921;-67
2024/01/28 09:16:45;;;;;;;;;;;;;;;12.88;55.81;102833.88;4995609;28;19996;-67
2024/01/28 09:19:10;;;;;;;;;;;;;;;11.47;55.76;102836.34;4993130;28;19925;-67
2024/01/28 09:21:35;;;;;;;;;;;;;;;9.51;60.57;102836.69;5004683;28;19921;-68
2024/01/28 09:24:01;;;;;;;;;;;;;;;8.04;69.62;102839.56;4995820;28;20006;-67
2024/01/28 09:26:26;;;;;;;;;;;;;;;6.93;71.67;102836.78;5019885;28;19925;-67
2024/01/28 09:28:52;;;;;;;;;;;;;;;6.09;74.30;102829.34;4994606;28;20248;-67
2024/01/28 09:31:17;;;;;;;;;;;;;;;5.46;74.87;102829.41;5005222;28;20023;-67
2024/01/28 09:33:43;;;;;;;;;;;;;;;4.99;77.44;102832.69;5003535;28;19928;-67
2024/01/28 09:36:08;;;;;;;;;;;;;;;4.78;78.76;102830.00;5006994;28;19921;-67
2024/01/28 09:38:33;;;;;;;;;;;;;;;4.48;79.44;102833.03;5006172;28;19921;-67
2024/01/28 09:41:07;;;;;;;;;;;;;;;4.26;78.31;102833.75;5017364;28;19921;-67
2024/01/28 09:43:34;;;;;;;;;;;;;;;4.08;80.10;102839.00;5021219;28;20266;-67
2024/01/28 09:46:00;;;;;;;;;;;;;;;4.58;78.36;102829.13;4994865;28;19928;-74
2024/01/28 09:48:26;;;;;;;;;;;;;;;6.34;72.63;102830.31;5005510;28;19929;-74
2024/01/28 09:50:51;;;;;;;;;;;;;;;8.21;67.53;102820.91;5016335;28;20415;-74
2024/01/28 09:53:18;;;;;;;;;;;;;;;9.77;64.11;102817.19;5015912;28;19960;-75
2024/01/28 09:55:43;;;;;;;;;;;;;;;10.68;58.96;102824.44;5068054;22;20441;-67
2024/01/28 09:58:09;;;;;;;;;;;;;;;12.09;58.65;102815.41;5029450;28;20016;-67
2024/01/28 10:00:34;;;;;;;;;;;;;;;13.37;53.17;102822.97;5028564;28;19971;-67
2024/01/28 10:03:00;;;;;;;;;;;;;;;14.07;53.08;102822.56;5015783;28;19928;-68
2024/01/28 10:05:26;;;;;;;;;;;;;;;14.97;51.60;102817.59;5029918;28;20062;-67
2024/01/28 10:07:58;;;;;;;;;;;;;;;15.31;48.38;102817.63;5013923;28;19928;-68
2024/01/28 10:10:23;;;;;;;;;;;;;;;15.39;49.82;102816.75;5033593;28;20273;-67
2024/01/28 10:12:49;;;;;;;;;;;;;;;14.60;46.45;102812.25;5027984;28;19921;-67
2024/01/28 10:15:18;;;;;;;;;;;;;;;14.30;53.56;102808.59;5017075;28;19921;-67
2024/01/28 10:17:48;;;;;;;;;;;;;;;14.42;51.29;102808.63;5057578;22;19932;-74
2024/01/28 10:20:17;;;;;;;;;;;;;;;14.38;47.84;102806.91;5044963;28;20078;-77
2024/01/28 10:22:42;;;;;;;;;;;;;;;14.21;49.48;102810.31;5040643;28;19995;-78
2024/01/28 10:25:11;;;;;;;;;;;;;;;13.59;51.73;102809.09;5053056;28;20467;-78
2024/01/28 10:27:37;;;;;;;;;;;;;;;13.71;52.59;102812.69;5323207;22;19936;-67
2024/01/28 10:30:03;;;;;;;;;;;;;;;14.24;49.52;102798.00;5014457;28;19933;-67
2024/01/28 10:32:28;;;;;;;;;;;;;;;14.73;47.22;102800.88;5007900;28;19924;-67
2024/01/28 10:34:53;;;;;;;;;;;;;;;15.03;45.58;102799.16;5023216;28;19937;-68
2024/01/28 10:37:19;;;;;;;;;;;;;;;14.88;45.45;102797.34;5013975;28;19970;-67
2024/01/28 10:39:47;;;;;;;;;;;;;;;14.16;45.57;102788.31;5025919;28;20015;-67
2024/01/28 10:42:16;;;;;;;;;;;;;;;14.03;46.12;102786.50;5027410;28;19959;-67
2024/01/28 10:44:45;;;;;;;;;;;;;;;14.35;47.70;102785.75;5026302;28;19920;-67
2024/01/28 10:47:12;;;;;;;;;;;;;;;14.69;47.98;102785.91;5021449;28;19921;-76
2024/01/28 10:49:39;;;;;;;;;;;;;;;15.07;45.67;102782.44;5031463;28;20284;-78
2024/01/28 10:52:05;;;;;;;;;;;;;;;15.43;45.94;102780.66;5318323;22;19932;-77
2024/01/28 10:54:31;;;;;;;;;;;;;;;15.46;44.03;102774.47;5034478;28;19931;-77
2024/01/28 10:56:57;;;;;;;;;;;;;;;15.51;45.21;102773.59;5023716;28;19925;-78
2024/01/28 10:59:23;;;;;;;;;;;;;;;16.05;45.11;102762.91;5090857;23;20315;-70
2024/01/28 11:01:49;;;;;;;;;;;;;;;15.89;44.71;102756.81;5043149;28;19924;-77
2024/01/28 11:04:15;;;;;;;;;;;;;;;16.44;44.82;102757.44;5082151;22;19923;-75
2024/01/28 11:06:41;;;;;;;;;;;;;;;17.18;46.70;102753.38;5015255;28;19929;-77
2024/01/28 11:09:06;;;;;;;;;;;;;;;17.40;41.74;102757.59;5026865;28;19916;-78
2024/01/28 11:11:32;;;;;;;;;;;;;;;17.14;41.57;102752.56;5027600;28;19921;-76
2024/01/28 11:13:57;;;;;;;;;;;;;;;17.14;42.24;102740.19;5020970;28;19924;-77
2024/01/28 11:16:23;;;;;;;;;;;;;;;17.98;40.74;102737.53;5033284;28;20429;-76
2024/01/28 11:18:58;;;;;;;;;;;;;;;18.37;42.01;102737.00;5014850;28;19931;-68
2024/01/28 11:21:24;;;;;;;;;;;;;;;18.81;40.88;102739.91;5020348;28;19913;-68
2024/01/28 11:23:52;;;;;;;;;;;;;;;18.66;40.61;102738.34;5031568;28;20361;-68
2024/01/28 11:26:18;;;;;;;;;;;;;;;18.30;40.02;102730.94;5032426;28;19924;-68
2024/01/28 11:28:50;;;;;;;;;;;;;;;18.26;38.95;102725.66;5015917;28;20353;-68
2024/01/28 11:31:22;;;;;;;;;;;;;;;17.76;42.31;102725.41;5033355;28;20387;-68
2024/01/28 11:33:47;;;;;;;;;;;;;;;16.80;44.11;102713.06;5033286;28;19913;-68
2024/01/28 11:36:16;;;;;;;;;;;;;;;16.15;44.27;102709.97;5024142;28;19944;-68
2024/01/28 11:38:43;;;;;;;;;;;;;;;15.38;45.77;102697.88;5028263;28;20020;-68
2024/01/28 11:41:10;;;;;;;;;;;;;;;14.84;47.82;102706.75;5035243;28;19997;-68
2024/01/28 11:43:36;;;;;;;;;;;;;;;14.23;48.35;102699.59;5036243;28;19927;-68
2024/01/28 11:46:01;;;;;;;;;;;;;;;13.47;49.80;102698.38;5020202;28;20451;-68
2024/01/28 11:48:26;;;;;;;;;;;;;;;13.22;51.09;102692.06;5007763;28;19958;-68
2024/01/28 11:50:52;;;;;;;;;;;;;;;13.68;49.89;102687.97;5020021;28;19921;-68
2024/01/28 11:53:18;;;;;;;;;;;;;;;14.60;48.72;102686.47;5017805;28;19935;-76
2024/01/28 11:55:43;;;;;;;;;;;;;;;14.49;44.57;102683.81;5020358;28;19924;-75
2024/01/28 11:58:09;;;;;;;;;;;;;;;15.12;47.69;102682.97;5018354;28;19921;-75
2024/01/28 12:00:34;;;;;;;;;;;;;;;16.03;43.20;102687.09;5017118;28;19927;-75
2024/01/28 12:03:00;;;;;;;;;;;;;;;16.55;42.14;102677.97;5017585;28;20695;-76
2024/01/28 12:05:25;;;;;;;;;;;;;;;16.44;43.73;102675.41;5032120;28;20012;-76
2024/01/28 12:07:53;;;;;;;;;;;;;;;16.01;43.45;102683.59;5008689;28;19921;-76
2024/01/28 12:10:18;;;;;;;;;;;;;;;15.58;44.90;102672.28;5019421;28;19978;-76
2024/01/28 12:12:43;;;;;;;;;;;;;;;15.27;44.93;102671.50;5014376;28;19924;-75
2024/01/28 12:15:11;;;;;;;;;;;;;;;15.80;44.42;102669.59;5030321;28;19927;-76
2024/01/28 12:17:37;;;;;;;;;;;;;;;15.99;42.46;102672.13;5032147;28;19913;-75
2024/01/28 12:20:03;;;;;;;;;;;;;;;16.16;43.20;102665.00;5019511;28;20254;-68
2024/01/28 12:22:41;;;;;;;;;;;;;;;15.68;43.20;102661.69;5011682;28;20402;-68